Time;durP1;ratioP1;P1;durP2;ratioP2;P2;SDS_P1;SDS_P2;PMS_P1;PMS_P2;Temp;Humidity;BMP_temperature;BMP_pressure;BME280_temperature;BME280_humidity;BME280_pressure;Samples;Min_cycle;Max_cycle;Signal;HPM_P1;HPM_P2
2022/08/05 00:01:19;;;;;;;3.17;2.67;;;24.90;65.10;;;;;;5053318;28;20265;-62
2022/08/05 00:03:46;;;;;;;2.10;1.90;;;24.90;65.10;;;;;;5053389;28;20256;-61
2022/08/05 00:06:12;;;;;;;2.00;1.90;;;24.80;65.40;;;;;;5052976;28;20228;-62
2022/08/05 00:08:38;;;;;;;2.33;2.00;;;24.70;65.80;;;;;;5053354;28;20178;-61
2022/08/05 00:11:07;;;;;;;2.20;2.00;;;24.50;65.80;;;;;;5052699;28;20213;-61
2022/08/05 00:13:34;;;;;;;2.40;2.20;;;24.50;66.20;;;;;;5053832;28;20185;-61
2022/08/05 00:16:00;;;;;;;2.65;2.20;;;24.50;66.60;;;;;;5053006;28;20182;-62
2022/08/05 00:18:26;;;;;;;2.20;2.03;;;24.50;66.90;;;;;;5052961;28;20514;-61
2022/08/05 00:20:52;;;;;;;2.03;1.92;;;24.50;67.10;;;;;;5053279;28;20177;-61
2022/08/05 00:23:18;;;;;;;3.08;2.03;;;24.50;67.30;;;;;;5052957;28;20279;-62
2022/08/05 00:25:43;;;;;;;2.17;2.08;;;24.40;66.00;;;;;;5052828;28;20188;-62
2022/08/05 00:28:09;;;;;;;1.98;1.88;;;24.40;66.00;;;;;;5052628;28;20193;-61
2022/08/05 00:30:34;;;;;;;4.70;2.05;;;24.40;65.30;;;;;;5052858;28;20569;-61
2022/08/05 00:33:00;;;;;;;2.20;2.00;;;24.40;63.60;;;;;;5052611;28;20181;-61
2022/08/05 00:35:25;;;;;;;3.10;2.10;;;24.40;63.60;;;;;;5052389;28;20182;-61
2022/08/05 00:37:51;;;;;;;3.05;2.30;;;24.40;64.00;;;;;;5052684;28;20182;-61
2022/08/05 00:40:17;;;;;;;2.88;2.15;;;24.50;65.00;;;;;;5052610;28;20640;-61
2022/08/05 00:42:43;;;;;;;2.28;2.08;;;24.60;65.70;;;;;;5052617;28;20534;-62
2022/08/05 00:45:09;;;;;;;4.45;1.88;;;24.60;66.30;;;;;;5051032;28;20178;-62
2022/08/05 00:47:35;;;;;;;2.53;2.00;;;24.70;66.70;;;;;;5053153;28;20190;-62
2022/08/05 00:50:01;;;;;;;4.63;2.20;;;24.70;67.10;;;;;;5051121;28;20542;-62
2022/08/05 00:52:26;;;;;;;2.97;2.10;;;24.80;67.50;;;;;;5052691;28;20181;-61
2022/08/05 00:54:52;;;;;;;3.33;2.22;;;24.80;68.30;;;;;;5052283;28;20170;-62
2022/08/05 00:57:17;;;;;;;5.75;2.20;;;24.90;68.40;;;;;;5052355;28;20239;-62
2022/08/05 00:59:43;;;;;;;4.45;2.40;;;25.00;69.10;;;;;;5052185;28;20182;-61
2022/08/05 01:02:08;;;;;;;6.15;2.10;;;25.00;69.50;;;;;;5051308;28;20206;-61
2022/08/05 01:04:34;;;;;;;3.42;2.13;;;25.00;69.50;;;;;;5051945;28;20181;-62
2022/08/05 01:07:00;;;;;;;6.43;2.10;;;25.10;69.80;;;;;;5052498;28;20178;-62
2022/08/05 01:09:25;;;;;;;3.53;1.85;;;25.10;70.00;;;;;;5052277;28;20529;-61
2022/08/05 01:11:57;;;;;;;4.18;2.28;;;25.20;69.90;;;;;;5052149;28;20205;-61
2022/08/05 01:14:25;;;;;;;4.45;2.47;;;25.20;70.10;;;;;;5052155;28;20178;-61
2022/08/05 01:17:03;;;;;;;4.78;2.25;;;25.30;69.80;;;;;;5052105;28;20188;-61
2022/08/05 01:19:46;;;;;;;8.23;2.30;;;25.30;69.90;;;;;;5051652;28;20267;-62
2022/08/05 01:22:39;;;;;;;4.22;2.20;;;25.30;70.40;;;;;;5038617;28;20221;-61
2022/08/05 01:25:28;;;;;;;4.28;2.20;;;25.40;71.10;;;;;;5032287;28;20198;-61
2022/08/05 01:28:26;;;;;;;3.85;2.60;;;25.40;71.50;;;;;;5052166;28;20213;-61
2022/08/05 01:31:14;;;;;;;4.32;2.30;;;25.50;71.50;;;;;;5051992;28;20185;-61
2022/08/05 01:33:50;;;;;;;6.68;2.50;;;25.50;71.90;;;;;;5051290;28;20181;-61
2022/08/05 01:36:17;;;;;;;3.63;2.35;;;25.50;72.20;;;;;;5051146;28;20196;-61
2022/08/05 01:38:46;;;;;;;7.07;2.42;;;25.50;72.60;;;;;;5051949;28;20173;-61
2022/08/05 01:41:13;;;;;;;4.85;2.25;;;25.50;72.70;;;;;;5051190;28;20169;-62
2022/08/05 01:43:41;;;;;;;5.10;2.38;;;25.50;72.70;;;;;;5051240;28;20254;-61
2022/08/05 01:46:07;;;;;;;5.03;2.50;;;25.50;72.90;;;;;;5051613;28;20664;-61
2022/08/05 01:48:35;;;;;;;10.63;5.13;;;25.50;73.00;;;;;;5044309;28;20193;-61
2022/08/05 01:51:03;;;;;;;5.38;3.05;;;25.50;73.50;;;;;;5050706;28;20267;-60
2022/08/05 01:53:30;;;;;;;20.60;12.90;;;25.50;73.40;;;;;;5050994;28;20256;-61
2022/08/05 01:55:59;;;;;;;15.45;10.00;;;25.50;73.50;;;;;;5051427;28;20185;-61
2022/08/05 01:58:27;;;;;;;9.55;7.05;;;25.40;73.70;;;;;;5046509;28;20185;-61
2022/08/05 02:00:56;;;;;;;7.57;3.90;;;25.40;73.80;;;;;;5050508;28;20178;-62
2022/08/05 02:03:32;;;;;;;9.95;3.85;;;25.50;73.80;;;;;;5050566;28;20216;-61
2022/08/05 02:06:04;;;;;;;4.10;3.00;;;25.50;73.90;;;;;;5047657;28;20222;-61
2022/08/05 02:08:31;;;;;;;5.55;3.00;;;25.60;74.00;;;;;;5051100;28;20181;-61
2022/08/05 02:11:08;;;;;;;6.00;3.00;;;25.50;74.10;;;;;;5050524;28;20177;-61
2022/08/05 02:13:51;;;;;;;5.70;3.30;;;25.50;74.30;;;;;;5050745;28;20180;-61
2022/08/05 02:16:28;;;;;;;7.43;2.70;;;25.50;74.50;;;;;;5050618;28;20185;-61
2022/08/05 02:19:01;;;;;;;9.13;3.00;;;25.50;74.60;;;;;;5045589;28;20177;-61
2022/08/05 02:21:48;;;;;;;7.20;2.78;;;25.50;74.70;;;;;;5049001;28;20177;-61
2022/08/05 02:24:21;;;;;;;6.00;2.65;;;25.50;74.90;;;;;;5049358;28;20296;-61
2022/08/05 02:26:53;;;;;;;6.60;2.55;;;25.50;75.10;;;;;;5050940;28;20201;-62
2022/08/05 02:29:22;;;;;;;5.35;2.70;;;25.50;75.00;;;;;;5050864;28;20173;-62
2022/08/05 02:31:50;;;;;;;3.97;2.55;;;25.50;75.50;;;;;;5050230;28;20213;-61
2022/08/05 02:34:18;;;;;;;8.00;2.60;;;25.50;75.80;;;;;;5050226;28;20211;-61
2022/08/05 02:36:57;;;;;;;5.90;3.25;;;25.40;76.20;;;;;;5050121;28;20691;-61
2022/08/05 02:39:26;;;;;;;4.07;2.55;;;25.30;76.40;;;;;;5050484;28;20178;-61
2022/08/05 02:41:53;;;;;;;5.07;2.65;;;25.40;76.90;;;;;;5050877;28;20213;-61
2022/08/05 02:44:20;;;;;;;7.88;2.63;;;25.30;76.60;;;;;;5050784;28;20543;-61
2022/08/05 02:46:48;;;;;;;6.40;3.15;;;25.30;76.80;;;;;;5050614;28;20184;-61
2022/08/05 02:49:15;;;;;;;6.75;2.83;;;25.40;76.70;;;;;;5046074;28;20243;-61
2022/08/05 02:51:42;;;;;;;3.90;2.88;;;25.40;76.60;;;;;;5048150;28;20177;-61
2022/08/05 02:54:10;;;;;;;6.07;3.28;;;25.40;76.60;;;;;;5050333;28;20180;-61
2022/08/05 02:56:36;;;;;;;6.15;2.97;;;25.40;76.80;;;;;;5050835;28;20597;-61
2022/08/05 02:59:03;;;;;;;5.30;3.00;;;25.30;77.40;;;;;;5050701;28;20659;-61
2022/08/05 03:01:30;;;;;;;5.93;3.03;;;25.10;78.10;;;;;;5050119;28;20243;-61
2022/08/05 03:03:59;;;;;;;6.78;2.63;;;25.00;78.50;;;;;;5050602;28;20189;-61
2022/08/05 03:06:25;;;;;;;5.22;2.67;;;24.90;79.20;;;;;;5049829;28;20189;-61
2022/08/05 03:08:52;;;;;;;6.05;2.83;;;24.80;79.90;;;;;;5038671;28;20200;-61
2022/08/05 03:11:20;;;;;;;3.92;2.72;;;24.70;80.50;;;;;;5050676;28;20182;-61
2022/08/05 03:13:46;;;;;;;6.00;2.67;;;24.70;81.00;;;;;;5050688;28;20216;-61
2022/08/05 03:16:11;;;;;;;6.50;2.72;;;24.70;81.60;;;;;;5053949;28;20629;-61
2022/08/05 03:18:37;;;;;;;8.70;3.30;;;24.60;81.60;;;;;;5054718;28;20769;-61
2022/08/05 03:21:03;;;;;;;6.28;3.00;;;24.50;82.50;;;;;;5053687;28;20260;-61
2022/08/05 03:23:28;;;;;;;7.20;5.13;;;24.40;83.30;;;;;;5052503;28;20265;-61
2022/08/05 03:25:54;;;;;;;9.40;5.10;;;24.40;84.00;;;;;;5053951;28;20173;-61
2022/08/05 03:28:20;;;;;;;9.20;3.78;;;24.40;84.20;;;;;;5054188;28;20207;-61
2022/08/05 03:30:47;;;;;;;3.90;3.50;;;24.30;84.90;;;;;;5054044;28;20185;-61
2022/08/05 03:33:13;;;;;;;5.63;4.05;;;24.30;85.30;;;;;;5053830;28;20285;-61
2022/08/05 03:35:38;;;;;;;7.25;3.22;;;24.20;85.80;;;;;;5053534;28;20260;-61
2022/08/05 03:38:04;;;;;;;6.03;3.08;;;24.20;87.10;;;;;;5053209;28;20268;-61
2022/08/05 03:40:29;;;;;;;10.70;3.33;;;24.20;87.00;;;;;;5053910;28;20181;-61
2022/08/05 03:42:55;;;;;;;8.43;2.92;;;24.20;87.30;;;;;;5053290;28;20213;-61
2022/08/05 03:45:21;;;;;;;6.43;3.05;;;24.20;87.90;;;;;;5053406;28;20173;-61
2022/08/05 03:47:46;;;;;;;5.13;3.33;;;24.30;88.50;;;;;;5053836;28;20181;-61
2022/08/05 03:50:12;;;;;;;8.13;3.90;;;24.40;88.60;;;;;;5053491;28;20205;-61
2022/08/05 03:53:05;;;;;;;6.82;3.33;;;24.30;88.80;;;;;;5053850;28;20193;-61
2022/08/05 03:55:36;;;;;;;6.18;3.10;;;24.40;89.60;;;;;;5053048;28;20659;-61
2022/08/05 03:58:04;;;;;;;5.05;2.95;;;24.40;90.00;;;;;;5053061;28;20178;-61
2022/08/05 04:00:31;;;;;;;5.38;2.95;;;24.40;90.20;;;;;;5053685;28;20189;-60
2022/08/05 04:03:00;;;;;;;6.18;3.13;;;24.50;90.20;;;;;;5052581;28;20296;-61
2022/08/05 04:05:29;;;;;;;4.93;2.88;;;24.50;90.50;;;;;;5053630;28;20208;-61
2022/08/05 04:07:55;;;;;;;7.40;3.75;;;24.40;91.10;;;;;;5034190;28;20182;-61
2022/08/05 04:10:21;;;;;;;6.85;3.28;;;24.30;91.60;;;;;;5048703;28;20192;-61
2022/08/05 04:12:47;;;;;;;9.68;4.18;;;24.20;92.10;;;;;;5053232;28;20185;-61
2022/08/05 04:15:13;;;;;;;7.90;3.03;;;24.10;92.50;;;;;;5053484;28;20529;-61
2022/08/05 04:17:39;;;;;;;6.65;3.85;;;24.10;92.90;;;;;;5053040;28;20263;-61
2022/08/05 04:20:05;;;;;;;9.93;6.38;;;24.10;93.10;;;;;;5052507;28;20248;-61
2022/08/05 04:22:30;;;;;;;8.30;3.83;;;24.10;93.40;;;;;;5052317;28;20644;-62
2022/08/05 04:24:56;;;;;;;11.68;6.55;;;24.10;93.60;;;;;;5053238;28;20264;-62
2022/08/05 04:27:22;;;;;;;6.53;3.67;;;24.10;94.00;;;;;;5053086;28;20231;-62
2022/08/05 04:29:48;;;;;;;6.65;3.42;;;24.10;94.10;;;;;;5053239;28;20645;-65
2022/08/05 04:32:13;;;;;;;7.38;4.10;;;24.10;94.30;;;;;;5052048;28;20207;-64
2022/08/05 04:34:39;;;;;;;15.18;10.38;;;24.10;94.50;;;;;;5052391;28;20189;-64
2022/08/05 04:37:04;;;;;;;13.25;5.90;;;24.20;94.70;;;;;;5050863;28;20177;-63
2022/08/05 04:39:30;;;;;;;10.13;4.07;;;24.20;94.70;;;;;;5052832;28;20239;-62
2022/08/05 04:41:56;;;;;;;10.30;6.05;;;24.30;94.80;;;;;;5052599;28;20220;-61
2022/08/05 04:44:22;;;;;;;6.10;3.92;;;24.30;94.90;;;;;;5052367;28;20600;-62
2022/08/05 04:46:47;;;;;;;6.38;3.92;;;24.30;94.90;;;;;;5051168;28;20181;-59
2022/08/05 04:49:13;;;;;;;6.55;3.70;;;24.40;95.10;;;;;;5051447;28;20235;-62
2022/08/05 04:51:38;;;;;;;3.97;3.58;;;24.30;95.00;;;;;;5052791;28;20248;-60
2022/08/05 04:54:04;;;;;;;9.32;3.55;;;24.50;95.00;;;;;;5052350;28;20565;-61
2022/08/05 04:56:29;;;;;;;9.65;3.67;;;24.60;94.90;;;;;;5052722;28;20664;-61
2022/08/05 04:58:55;;;;;;;7.85;4.10;;;24.70;94.40;;;;;;5051796;28;20184;-61
2022/08/05 05:01:20;;;;;;;5.70;3.72;;;24.70;94.30;;;;;;5052423;28;20629;-61
2022/08/05 05:03:46;;;;;;;5.63;3.80;;;24.80;94.30;;;;;;5052568;28;20209;-60
2022/08/05 05:06:12;;;;;;;5.00;3.30;;;24.80;94.10;;;;;;5052582;28;20268;-61
2022/08/05 05:08:38;;;;;;;6.57;3.05;;;24.90;93.90;;;;;;5052539;28;20637;-60
2022/08/05 05:11:04;;;;;;;6.05;3.28;;;25.00;93.80;;;;;;5052330;28;20192;-61
2022/08/05 05:13:31;;;;;;;4.85;3.08;;;25.30;93.60;;;;;;5052450;28;20166;-61
2022/08/05 05:15:56;;;;;;;6.53;3.05;;;25.70;92.90;;;;;;5052257;28;20185;-61
2022/08/05 05:18:22;;;;;;;5.03;2.90;;;25.90;92.00;;;;;;5052284;28;20304;-61
2022/08/05 05:20:47;;;;;;;5.07;2.97;;;25.90;91.50;;;;;;5052361;28;20184;-62
2022/08/05 05:23:13;;;;;;;9.63;3.92;;;25.80;92.00;;;;;;5052034;28;20232;-62
2022/08/05 05:25:43;;;;;;;5.40;3.40;;;25.70;92.00;;;;;;5052504;28;20644;-61
2022/08/05 05:28:10;;;;;;;4.70;2.80;;;25.70;92.20;;;;;;5052351;28;20265;-62
2022/08/05 05:30:37;;;;;;;5.57;3.30;;;25.70;92.40;;;;;;5052246;28;20595;-62
2022/08/05 05:33:04;;;;;;;5.65;3.40;;;25.90;92.60;;;;;;5051490;28;20280;-62
2022/08/05 05:35:31;;;;;;;4.05;3.25;;;26.20;92.40;;;;;;5052176;28;20201;-61
2022/08/05 05:38:05;;;;;;;8.32;3.50;;;26.70;92.00;;;;;;5051369;28;20189;-62
2022/08/05 05:40:31;;;;;;;7.90;3.15;;;26.80;91.40;;;;;;5051906;28;20261;-61
2022/08/05 05:42:57;;;;;;;4.88;3.28;;;26.60;91.40;;;;;;5050382;28;20252;-61
2022/08/05 05:45:23;;;;;;;5.25;3.85;;;26.50;91.50;;;;;;5051807;28;20576;-61
2022/08/05 05:47:48;;;;;;;6.60;3.70;;;26.30;92.00;;;;;;5052140;28;20676;-61
2022/08/05 05:50:16;;;;;;;9.90;3.60;;;26.10;92.30;;;;;;5051580;28;20268;-61
2022/08/05 05:52:42;;;;;;;4.97;3.85;;;26.00;92.70;;;;;;5051626;28;20182;-62
2022/08/05 05:55:10;;;;;;;5.82;3.45;;;26.00;92.90;;;;;;5051826;28;20181;-62
2022/08/05 05:57:37;;;;;;;6.35;3.50;;;26.10;93.20;;;;;;5051628;28;20268;-61
2022/08/05 06:00:08;;;;;;;6.57;3.38;;;26.50;93.20;;;;;;5051359;28;20221;-62
2022/08/05 06:02:34;;;;;;;5.32;3.28;;;27.30;92.60;;;;;;5051481;28;20703;-61
2022/08/05 06:04:59;;;;;;;5.63;3.30;;;27.80;91.20;;;;;;5051739;28;20178;-61
2022/08/05 06:07:25;;;;;;;5.97;3.90;;;27.90;90.40;;;;;;5051572;28;20592;-61
2022/08/05 06:09:50;;;;;;;4.82;3.17;;;28.00;90.00;;;;;;5051910;28;20682;-62
2022/08/05 06:12:16;;;;;;;5.80;3.33;;;28.10;89.40;;;;;;5051203;28;20173;-62
2022/08/05 06:14:43;;;;;;;5.15;3.60;;;28.10;89.60;;;;;;5051673;28;20177;-62
2022/08/05 06:17:10;;;;;;;6.18;3.35;;;28.70;88.40;;;;;;5051653;28;20703;-62
2022/08/05 06:19:35;;;;;;;6.68;2.88;;;29.40;85.60;;;;;;5052761;28;20710;-62
2022/08/05 06:22:05;;;;;;;4.18;3.28;;;29.60;84.10;;;;;;5065274;28;20204;-62
2022/08/05 06:24:31;;;;;;;3.10;2.80;;;29.40;84.50;;;;;;5071618;28;20235;-62
2022/08/05 06:26:57;;;;;;;4.57;2.90;;;29.10;85.00;;;;;;5064239;28;20173;-62
2022/08/05 06:29:23;;;;;;;3.25;2.72;;;28.60;85.70;;;;;;5059027;28;20182;-62
2022/08/05 06:31:48;;;;;;;3.83;2.70;;;28.20;86.70;;;;;;5051631;28;20174;-63
2022/08/05 06:34:14;;;;;;;3.30;2.55;;;27.80;87.50;;;;;;5051238;28;20193;-63
2022/08/05 06:36:39;;;;;;;4.32;2.65;;;27.60;88.50;;;;;;5050191;28;20178;-63
2022/08/05 06:39:05;;;;;;;3.05;2.33;;;27.40;89.70;;;;;;5051329;28;20671;-63
2022/08/05 06:41:30;;;;;;;4.43;2.60;;;27.20;89.70;;;;;;5049995;28;20169;-62
2022/08/05 06:43:56;;;;;;;3.95;2.63;;;27.10;89.50;;;;;;5051725;28;20671;-61
2022/08/05 06:46:21;;;;;;;4.18;2.63;;;26.90;89.30;;;;;;5057803;28;20169;-60
2022/08/05 06:48:47;;;;;;;3.88;2.70;;;26.80;90.00;;;;;;5065423;28;20178;-59
2022/08/05 06:51:13;;;;;;;3.17;2.33;;;26.70;90.00;;;;;;5055052;28;20177;-61
2022/08/05 06:53:38;;;;;;;3.42;2.42;;;26.60;90.00;;;;;;5058010;28;20570;-61
2022/08/05 06:56:04;;;;;;;4.35;2.60;;;26.50;90.10;;;;;;5071984;28;20184;-62
2022/08/05 06:58:31;;;;;;;3.17;2.53;;;26.50;90.00;;;;;;5054113;28;20264;-60
2022/08/05 07:01:01;;;;;;;3.97;2.17;;;26.40;90.10;;;;;;5054952;28;20174;-60
2022/08/05 07:03:27;;;;;;;3.38;2.35;;;26.50;90.30;;;;;;5054785;28;20205;-62
2022/08/05 07:05:53;;;;;;;3.15;2.17;;;26.70;90.50;;;;;;5037214;28;20256;-63
2022/08/05 07:08:21;;;;;;;3.60;2.40;;;27.10;89.80;;;;;;5054287;28;20178;-63
2022/08/05 07:10:47;;;;;;;4.10;2.28;;;28.00;89.40;;;;;;5043871;28;20209;-63
2022/08/05 07:18:41;;;;;;;3.65;2.50;;;29.00;81.20;;;;;;5055007;28;20184;-63
2022/08/05 07:21:06;;;;;;;3.75;2.50;;;29.60;81.40;;;;;;5059044;28;20181;-63
2022/08/05 07:23:33;;;;;;;4.13;2.40;;;30.20;80.10;;;;;;5073100;28;20581;-63
2022/08/05 07:25:59;;;;;;;3.80;2.45;;;30.60;80.30;;;;;;5074347;28;20169;-63
2022/08/05 07:28:25;;;;;;;3.88;2.78;;;30.60;77.80;;;;;;5054583;28;20181;-65
2022/08/05 07:30:51;;;;;;;4.50;2.65;;;30.40;78.20;;;;;;5054476;28;20196;-65
2022/08/05 07:33:16;;;;;;;4.18;2.60;;;30.60;77.20;;;;;;5054256;28;20185;-65
2022/08/05 07:35:42;;;;;;;4.88;2.55;;;31.20;76.40;;;;;;5053904;28;20655;-63
2022/08/05 07:38:08;;;;;;;5.25;2.90;;;31.90;75.10;;;;;;5054532;28;20188;-64
2022/08/05 07:40:33;;;;;;;3.17;2.67;;;32.30;73.70;;;;;;5054315;28;20264;-63
2022/08/05 07:42:59;;;;;;;3.72;2.10;;;32.60;71.90;;;;;;5054461;28;20217;-63
2022/08/05 07:45:24;;;;;;;3.83;2.40;;;33.10;66.90;;;;;;5054373;28;20181;-63
2022/08/05 07:47:51;;;;;;;3.53;2.30;;;33.40;65.40;;;;;;5054122;28;20760;-63
2022/08/05 07:50:17;;;;;;;5.00;2.42;;;33.50;65.10;;;;;;5049825;28;20201;-63
2022/08/05 07:52:43;;;;;;;5.35;2.42;;;33.80;65.90;;;;;;5043876;28;20177;-63
2022/08/05 07:55:09;;;;;;;2.58;2.38;;;34.10;63.90;;;;;;5053003;28;20181;-64
2022/08/05 07:57:35;;;;;;;2.67;1.98;;;34.40;63.70;;;;;;5054179;28;20187;-61
2022/08/05 08:00:03;;;;;;;3.65;2.45;;;34.60;61.60;;;;;;5053286;28;20176;-61
2022/08/05 08:02:28;;;;;;;5.63;2.53;;;34.70;61.90;;;;;;5054032;28;20204;-65
2022/08/05 08:04:54;;;;;;;2.65;2.33;;;34.70;60.60;;;;;;5054022;28;20181;-65
2022/08/05 08:07:21;;;;;;;3.22;2.40;;;34.60;61.00;;;;;;5054172;28;20180;-64
2022/08/05 08:09:47;;;;;;;4.20;2.60;;;34.60;61.40;;;;;;5054086;28;20211;-64
2022/08/05 08:12:13;;;;;;;3.78;2.67;;;34.80;60.70;;;;;;5053557;28;20183;-65
2022/08/05 08:14:39;;;;;;;5.32;2.50;;;35.40;60.30;;;;;;5053783;28;20517;-64
2022/08/05 08:17:09;;;;;;;4.00;2.88;;;35.60;58.70;;;;;;5053640;28;20271;-64
2022/08/05 08:19:35;;;;;;;3.78;2.28;;;35.50;58.10;;;;;;5052512;28;20235;-65
2022/08/05 08:22:01;;;;;;;3.13;2.65;;;35.70;58.70;;;;;;5053526;28;20713;-65
2022/08/05 08:24:26;;;;;;;3.97;2.33;;;35.70;58.10;;;;;;5053607;28;20296;-65
2022/08/05 08:26:52;;;;;;;5.32;2.40;;;35.40;58.10;;;;;;5053631;28;20191;-65
2022/08/05 08:29:17;;;;;;;4.53;2.60;;;35.00;58.50;;;;;;5053445;28;20169;-65
2022/08/05 08:31:42;;;;;;;2.72;2.35;;;35.30;58.50;;;;;;5053460;28;20682;-65
2022/08/05 08:34:08;;;;;;;2.58;2.22;;;36.00;57.70;;;;;;5053521;28;20197;-65
2022/08/05 08:36:33;;;;;;;5.00;2.40;;;36.50;55.50;;;;;;5053601;28;20180;-65
2022/08/05 08:38:59;;;;;;;3.75;2.20;;;36.70;54.30;;;;;;5052033;28;20176;-65
2022/08/05 08:41:27;;;;;;;4.07;2.03;;;36.70;54.70;;;;;;5052955;28;20558;-65
2022/08/05 08:43:54;;;;;;;3.05;1.98;;;36.50;54.30;;;;;;5052469;28;20204;-63
2022/08/05 08:46:22;;;;;;;2.78;2.28;;;36.80;53.10;;;;;;5052966;28;20188;-64
2022/08/05 08:48:49;;;;;;;3.20;2.00;;;37.10;51.50;;;;;;5053291;28;20623;-64
2022/08/05 08:51:17;;;;;;;2.00;1.90;;;37.50;50.70;;;;;;5052991;28;20219;-64
2022/08/05 08:53:43;;;;;;;1.92;1.70;;;37.50;48.60;;;;;;5053097;28;20169;-63
2022/08/05 08:56:09;;;;;;;2.30;1.70;;;37.70;49.10;;;;;;5052919;28;20639;-66
2022/08/05 08:58:35;;;;;;;3.60;1.80;;;37.50;48.30;;;;;;5053122;28;20552;-66
2022/08/05 09:01:01;;;;;;;1.83;1.73;;;37.70;47.00;;;;;;5052715;28;20177;-66
2022/08/05 09:03:27;;;;;;;4.38;1.77;;;37.90;45.10;;;;;;5051213;28;20227;-67
2022/08/05 09:05:53;;;;;;;2.15;1.58;;;38.10;44.50;;;;;;5052779;28;20183;-66
2022/08/05 09:08:18;;;;;;;1.60;1.42;;;38.30;44.70;;;;;;5052453;28;20770;-66
2022/08/05 09:10:44;;;;;;;2.00;1.45;;;38.30;44.40;;;;;;5050542;28;20263;-66
2022/08/05 09:13:13;;;;;;;2.67;1.52;;;38.00;43.70;;;;;;5051773;28;20277;-66
2022/08/05 09:15:39;;;;;;;1.65;1.55;;;37.60;44.00;;;;;;5051001;28;20176;-66
2022/08/05 09:18:08;;;;;;;2.15;1.40;;;37.20;44.10;;;;;;5052392;28;20191;-66
2022/08/05 09:20:34;;;;;;;1.58;1.48;;;37.10;44.60;;;;;;5052226;28;20189;-67
2022/08/05 09:23:06;;;;;;;1.20;1.20;;;37.30;44.20;;;;;;5052166;28;20239;-66
2022/08/05 09:25:32;;;;;;;1.92;1.73;;;37.60;43.90;;;;;;5052324;28;20177;-66
2022/08/05 09:28:27;;;;;;;2.22;1.70;;;37.40;43.60;;;;;;5051868;28;20185;-66
2022/08/05 09:31:03;;;;;;;2.45;1.48;;;37.50;43.90;;;;;;5052467;28;20185;-66
2022/08/05 09:33:29;;;;;;;1.88;1.60;;;37.80;43.00;;;;;;5052118;28;20173;-65
2022/08/05 09:35:57;;;;;;;1.50;1.40;;;37.60;43.50;;;;;;5051850;28;20231;-66
2022/08/05 09:38:24;;;;;;;1.77;1.67;;;37.60;44.20;;;;;;5051886;28;20177;-66
2022/08/05 09:40:49;;;;;;;1.45;1.40;;;38.10;43.90;;;;;;5051964;28;20654;-67
2022/08/05 09:43:35;;;;;;;1.55;1.45;;;38.20;43.20;;;;;;5051472;28;20216;-66
2022/08/05 09:46:02;;;;;;;1.77;1.50;;;38.40;42.30;;;;;;5032249;28;20170;-66
2022/08/05 09:48:30;;;;;;;1.85;1.67;;;38.30;43.50;;;;;;5037812;28;20184;-65
2022/08/05 09:51:01;;;;;;;1.83;1.73;;;37.60;42.60;;;;;;5051529;28;20518;-64
2022/08/05 09:53:28;;;;;;;1.48;1.38;;;37.00;43.80;;;;;;5049322;28;20707;-65
2022/08/05 09:55:59;;;;;;;2.20;1.45;;;36.60;44.70;;;;;;5051724;28;20181;-65
2022/08/05 09:58:25;;;;;;;2.75;1.52;;;36.40;45.30;;;;;;5051351;28;20173;-65
2022/08/05 10:00:52;;;;;;;1.50;1.35;;;36.40;45.40;;;;;;5051280;28;20279;-65
2022/08/05 10:03:18;;;;;;;2.22;1.40;;;36.60;45.50;;;;;;5051585;28;20228;-65
2022/08/05 10:05:44;;;;;;;1.67;1.30;;;37.10;45.20;;;;;;5051904;28;20609;-65
2022/08/05 10:08:09;;;;;;;2.08;1.48;;;37.20;45.00;;;;;;5051407;28;20189;-65
2022/08/05 10:10:43;;;;;;;2.05;1.70;;;37.50;44.30;;;;;;5051322;28;20188;-65
2022/08/05 10:13:10;;;;;;;1.90;1.70;;;37.70;44.00;;;;;;5051094;28;20187;-66
2022/08/05 10:15:38;;;;;;;1.77;1.67;;;37.90;43.40;;;;;;5049832;28;20169;-63
2022/08/05 10:18:09;;;;;;;1.73;1.60;;;38.10;43.40;;;;;;5051423;28;20176;-66
2022/08/05 10:20:55;;;;;;;1.33;1.23;;;38.40;42.90;;;;;;5051811;28;20655;-68
2022/08/05 10:23:22;;;;;;;2.50;1.60;;;38.70;42.50;;;;;;5050915;28;20582;-66
2022/08/05 10:25:48;;;;;;;1.50;1.40;;;38.80;41.90;;;;;;5051019;28;20179;-68
2022/08/05 10:28:16;;;;;;;3.35;1.67;;;38.60;41.90;;;;;;5054654;28;20195;-65
2022/08/05 10:30:42;;;;;;;1.92;1.83;;;38.40;41.40;;;;;;5051109;28;20200;-63
2022/08/05 10:33:08;;;;;;;2.10;1.90;;;38.10;42.90;;;;;;5050824;28;20177;-63
2022/08/05 10:35:34;;;;;;;2.33;1.73;;;37.90;42.90;;;;;;5051619;28;20187;-63
2022/08/05 10:38:00;;;;;;;1.40;1.30;;;37.50;42.90;;;;;;5051239;28;20172;-64
2022/08/05 10:40:37;;;;;;;1.75;1.58;;;37.60;43.50;;;;;;5051275;28;20180;-64
2022/08/05 10:43:37;;;;;;;2.03;1.30;;;37.90;43.10;;;;;;5050300;28;20212;-64
2022/08/05 10:46:07;;;;;;;2.30;1.52;;;38.10;42.40;;;;;;5051382;28;20168;-64
2022/08/05 10:48:39;;;;;;;1.60;1.50;;;37.90;41.70;;;;;;5051107;28;20176;-64
2022/08/05 10:51:16;;;;;;;1.50;1.40;;;37.80;42.40;;;;;;5051087;28;20544;-64
2022/08/05 10:53:53;;;;;;;2.13;1.40;;;37.40;42.30;;;;;;5051129;28;20184;-64
2022/08/05 10:56:20;;;;;;;1.70;1.60;;;37.00;43.70;;;;;;5050845;28;20204;-64
2022/08/05 10:59:04;;;;;;;1.73;1.20;;;37.00;42.80;;;;;;5051326;28;20172;-63
2022/08/05 11:01:33;;;;;;;2.63;1.42;;;37.40;42.70;;;;;;5051389;28;20206;-64
2022/08/05 11:03:59;;;;;;;6.47;1.50;;;37.70;42.30;;;;;;5051416;28;20365;-63
2022/08/05 11:06:25;;;;;;;2.95;1.38;;;37.90;42.10;;;;;;5061580;28;20689;-64
2022/08/05 11:09:15;;;;;;;2.08;1.20;;;38.00;42.10;;;;;;5062880;28;20189;-64
2022/08/05 11:11:42;;;;;;;3.28;1.45;;;38.20;41.80;;;;;;5031508;28;20269;-64
2022/08/05 11:14:10;;;;;;;1.92;1.80;;;38.10;41.80;;;;;;5039808;28;20177;-64
2022/08/05 11:16:36;;;;;;;2.38;1.50;;;38.20;41.70;;;;;;5051380;28;20202;-64
2022/08/05 11:19:25;;;;;;;3.20;1.50;;;38.10;41.60;;;;;;5051075;28;20263;-63
2022/08/05 11:21:51;;;;;;;1.67;1.50;;;37.90;41.90;;;;;;5031274;28;20610;-64
2022/08/05 11:24:18;;;;;;;1.50;1.40;;;37.70;41.60;;;;;;5039177;28;20255;-64
2022/08/05 11:26:43;;;;;;;1.63;1.42;;;37.50;42.00;;;;;;5050901;28;20539;-64
2022/08/05 11:29:36;;;;;;;1.92;1.55;;;37.30;43.00;;;;;;5050326;28;20177;-64
2022/08/05 11:32:26;;;;;;;3.50;1.83;;;37.40;42.50;;;;;;5041698;28;20177;-64
2022/08/05 11:34:52;;;;;;;1.58;1.48;;;37.40;42.90;;;;;;5033855;28;20586;-64
2022/08/05 11:37:40;;;;;;;1.63;1.52;;;37.60;42.50;;;;;;5048488;28;20532;-64
2022/08/05 11:40:06;;;;;;;1.98;1.42;;;37.70;42.00;;;;;;5053913;28;20181;-64
2022/08/05 11:42:33;;;;;;;2.60;1.50;;;37.50;42.30;;;;;;5054651;28;20752;-64
2022/08/05 11:45:03;;;;;;;1.60;1.50;;;37.40;43.10;;;;;;5052404;28;20654;-64
2022/08/05 11:47:31;;;;;;;1.73;1.60;;;37.20;42.60;;;;;;5054061;28;20184;-64
2022/08/05 11:49:59;;;;;;;2.33;1.80;;;37.20;42.50;;;;;;5053774;28;20176;-65
2022/08/05 11:52:26;;;;;;;1.60;1.50;;;37.30;42.90;;;;;;5054440;28;20189;-64
2022/08/05 11:54:52;;;;;;;1.77;1.60;;;37.40;42.80;;;;;;5053705;28;20204;-64
2022/08/05 11:57:18;;;;;;;1.63;1.52;;;37.70;42.70;;;;;;5053589;28;20185;-64
2022/08/05 11:59:43;;;;;;;1.70;1.60;;;37.80;41.80;;;;;;5054216;28;20325;-64
2022/08/05 12:02:09;;;;;;;1.60;1.50;;;37.80;41.40;;;;;;5053620;28;20203;-64
2022/08/05 12:04:47;;;;;;;2.03;1.70;;;37.90;41.30;;;;;;5053323;28;20188;-64
2022/08/05 12:07:15;;;;;;;1.92;1.67;;;37.90;42.20;;;;;;5052967;28;20182;-64
2022/08/05 12:09:46;;;;;;;2.55;1.45;;;37.90;41.90;;;;;;5053680;28;20181;-64
2022/08/05 12:12:11;;;;;;;1.65;1.52;;;37.90;42.20;;;;;;5053122;28;20276;-64
2022/08/05 12:14:42;;;;;;;2.13;1.52;;;38.10;40.80;;;;;;5053099;28;20268;-64
2022/08/05 12:17:14;;;;;;;4.22;1.60;;;38.10;40.60;;;;;;5053871;28;20632;-64
2022/08/05 12:19:51;;;;;;;2.22;1.70;;;38.20;41.00;;;;;;5054242;28;20181;-64
2022/08/05 12:22:19;;;;;;;2.45;1.60;;;38.30;41.10;;;;;;5052348;28;20203;-63
2022/08/05 12:24:48;;;;;;;1.80;1.70;;;38.10;41.30;;;;;;5052467;28;20228;-66
2022/08/05 12:27:21;;;;;;;2.05;1.77;;;38.00;42.20;;;;;;5052975;28;20181;-64
2022/08/05 12:30:09;;;;;;;1.60;1.50;;;37.90;41.80;;;;;;5053593;28;20188;-63
2022/08/05 12:32:44;;;;;;;3.72;2.60;;;37.90;41.40;;;;;;5051240;28;20192;-64
2022/08/05 12:35:12;;;;;;;2.17;1.58;;;37.80;41.00;;;;;;5053595;28;20180;-64
2022/08/05 12:37:37;;;;;;;3.33;1.60;;;37.90;41.10;;;;;;5053370;28;20211;-64
2022/08/05 12:40:08;;;;;;;2.67;1.45;;;37.80;41.40;;;;;;5053317;28;20789;-64
2022/08/05 12:42:35;;;;;;;1.48;1.33;;;37.80;41.40;;;;;;5053243;28;20223;-64
2022/08/05 12:45:04;;;;;;;1.88;1.52;;;37.70;41.40;;;;;;5053348;28;20219;-64
2022/08/05 12:47:30;;;;;;;1.85;1.75;;;37.40;42.30;;;;;;5053415;28;20524;-64
2022/08/05 12:49:55;;;;;;;2.35;1.80;;;37.20;42.00;;;;;;5053058;28;20628;-64
2022/08/05 12:52:21;;;;;;;2.30;1.33;;;37.10;41.90;;;;;;5053348;28;20181;-63
2022/08/05 12:54:48;;;;;;;1.77;1.67;;;37.10;41.50;;;;;;5052881;28;20200;-63
2022/08/05 12:57:14;;;;;;;1.58;1.48;;;37.20;41.40;;;;;;5053067;28;20262;-63